Time;durP1;ratioP1;P1;durP2;ratioP2;P2;SDS_P1;SDS_P2;PMS_P1;PMS_P2;Temp;Humidity;BMP_temperature;BMP_pressure;BME280_temperature;BME280_humidity;BME280_pressure;Samples;Min_cycle;Max_cycle;Signal;HPM_P1;HPM_P2
2022/11/10 00:02:01;;;;;;;72.37;32.43;;;13.30;90.40;;;;;;4986705;28;20170;-46
2022/11/10 00:04:27;;;;;;;78.27;28.67;;;13.30;90.50;;;;;;4987021;28;20359;-48
2022/11/10 00:06:52;;;;;;;79.80;32.47;;;13.30;90.50;;;;;;4988007;28;20041;-49
2022/11/10 00:09:18;;;;;;;80.80;31.80;;;13.20;90.60;;;;;;4984459;28;20605;-46
2022/11/10 00:11:45;;;;;;;62.20;26.70;;;13.30;90.60;;;;;;4985743;28;20026;-51
2022/11/10 00:17:00;;;;;;;72.75;27.88;;;13.30;90.50;;;;;;4982693;28;20454;-47
2022/11/10 00:19:27;;;;;;;69.22;30.27;;;13.20;90.50;;;;;;4984551;28;20122;-51
2022/11/10 00:21:52;;;;;;;;;;;13.20;90.50;;;;;;4986152;28;20053;-55
2022/11/10 00:24:18;;;;;;;68.95;27.95;;;13.20;90.50;;;;;;4986462;28;19949;-55
2022/11/10 00:26:44;;;;;;;66.60;29.33;;;13.20;90.50;;;;;;4985954;28;20022;-54
2022/11/10 00:29:09;;;;;;;60.00;26.97;;;13.20;90.70;;;;;;4985373;28;20538;-53
2022/11/10 00:31:39;;;;;;;69.43;29.13;;;13.20;90.50;;;;;;4984980;28;20025;-56
2022/11/10 00:34:06;;;;;;;89.82;30.23;;;13.30;90.60;;;;;;4987518;28;20359;-58
2022/11/10 00:36:33;;;;;;;84.60;34.53;;;13.20;90.70;;;;;;4987890;28;20096;-54
2022/11/10 00:38:59;;;;;;;82.15;32.30;;;13.20;90.80;;;;;;4986839;28;20039;-53
2022/11/10 00:41:25;;;;;;;75.07;31.77;;;13.20;90.80;;;;;;4983125;28;20417;-56
2022/11/10 00:43:50;;;;;;;75.30;34.53;;;13.30;90.70;;;;;;4988020;28;20034;-53
2022/11/10 00:46:16;;;;;;;87.53;35.37;;;13.20;90.90;;;;;;4986945;28;20038;-47
2022/11/10 00:48:41;;;;;;;80.23;34.63;;;13.30;90.90;;;;;;4987032;28;20468;-48
2022/11/10 00:51:11;;;;;;;70.30;32.93;;;13.20;91.20;;;;;;4988038;28;20037;-50
2022/11/10 00:53:37;;;;;;;70.30;31.48;;;13.30;90.80;;;;;;4982859;28;20026;-53
2022/11/10 00:56:02;;;;;;;79.63;32.77;;;13.20;90.80;;;;;;4986024;28;20487;-49
2022/11/10 00:58:28;;;;;;;61.87;29.87;;;13.30;90.80;;;;;;4985572;28;20030;-54
2022/11/10 01:01:04;;;;;;;72.67;31.77;;;13.30;90.80;;;;;;4986113;28;20041;-51
2022/11/10 01:03:31;;;;;;;53.88;27.15;;;13.30;90.80;;;;;;4986549;28;20102;-49
2022/11/10 01:05:56;;;;;;;58.03;27.50;;;13.30;90.60;;;;;;4983313;28;20069;-48
2022/11/10 01:08:23;;;;;;;54.47;28.67;;;13.30;90.70;;;;;;4985492;28;20522;-56
2022/11/10 01:10:48;;;;;;;;;;;13.30;90.90;;;;;;4988804;28;20042;-56
2022/11/10 01:13:14;;;;;;;46.55;24.67;;;13.30;90.80;;;;;;4984435;28;20282;-53
2022/11/10 01:15:41;;;;;;;46.83;24.13;;;13.20;90.90;;;;;;4984645;28;20054;-55
2022/11/10 01:18:07;;;;;;;42.63;24.67;;;13.20;90.80;;;;;;4988492;28;20022;-54
2022/11/10 01:20:33;;;;;;;50.47;26.52;;;13.20;90.90;;;;;;4985006;28;20038;-54
2022/11/10 01:22:59;;;;;;;38.38;23.00;;;13.20;91.00;;;;;;4982729;28;20023;-57
2022/11/10 01:25:25;;;;;;;45.23;24.93;;;13.20;90.90;;;;;;4984919;28;20035;-50
2022/11/10 01:27:51;;;;;;;36.13;21.97;;;13.20;91.00;;;;;;4988171;28;20504;-55
2022/11/10 01:30:17;;;;;;;36.03;22.08;;;13.20;90.90;;;;;;4987564;28;20030;-57
2022/11/10 01:32:43;;;;;;;36.80;21.63;;;13.30;90.90;;;;;;4986797;28;20030;-57
2022/11/10 01:35:08;;;;;;;42.83;23.17;;;13.30;90.90;;;;;;4992006;28;20121;-51
2022/11/10 01:37:34;;;;;;;43.60;23.03;;;13.30;90.80;;;;;;4988857;28;20524;-50
2022/11/10 01:40:00;;;;;;;41.42;22.83;;;13.30;90.80;;;;;;4987604;28;20383;-52
2022/11/10 01:42:46;;;;;;;34.97;21.03;;;13.30;90.90;;;;;;4990411;28;20109;-56
2022/11/10 01:45:23;;;;;;;38.58;21.77;;;13.30;90.80;;;;;;4990612;28;20085;-55
2022/11/10 01:47:56;;;;;;;35.83;21.52;;;13.20;90.90;;;;;;4986681;28;20030;-58
2022/11/10 01:50:27;;;;;;;37.75;21.75;;;13.30;90.90;;;;;;4987639;28;20025;-56
2022/11/10 01:52:58;;;;;;;40.58;21.98;;;13.30;90.90;;;;;;4986681;28;20118;-51
2022/11/10 01:55:25;;;;;;;46.08;22.27;;;13.30;90.80;;;;;;4992233;28;20076;-54
2022/11/10 01:57:50;;;;;;;;;;;13.20;91.00;;;;;;4987213;28;20080;-54
2022/11/10 02:00:18;;;;;;;39.42;19.70;;;13.30;90.70;;;;;;4989937;28;19918;-50
2022/11/10 02:02:59;;;;;;;37.65;20.40;;;13.30;90.60;;;;;;4987046;28;20076;-46
2022/11/10 02:05:25;;;;;;;31.70;19.60;;;13.20;90.50;;;;;;4991888;28;20097;-49
2022/11/10 02:07:51;;;;;;;35.92;20.35;;;13.20;90.40;;;;;;4987381;28;20450;-46
2022/11/10 02:10:19;;;;;;;33.73;19.37;;;13.20;90.70;;;;;;4990034;28;20498;-46
2022/11/10 02:12:47;;;;;;;43.35;21.33;;;13.20;90.60;;;;;;4987065;28;20038;-47
2022/11/10 02:15:16;;;;;;;39.08;20.92;;;13.20;90.80;;;;;;4991691;28;20031;-55
2022/11/10 02:17:44;;;;;;;37.20;21.33;;;13.20;90.80;;;;;;4987899;28;20390;-53
2022/11/10 02:20:14;;;;;;;49.55;24.52;;;13.30;90.90;;;;;;4989288;28;20462;-48
2022/11/10 02:22:40;;;;;;;48.03;24.55;;;13.30;90.90;;;;;;4987317;28;20042;-52
2022/11/10 02:25:06;;;;;;;44.20;22.55;;;13.20;91.00;;;;;;4990331;28;20502;-50
2022/11/10 02:27:32;;;;;;;39.10;20.67;;;13.20;91.00;;;;;;4989107;28;20398;-51
2022/11/10 02:29:58;;;;;;;36.83;19.23;;;13.20;91.40;;;;;;4986529;28;20041;-51
2022/11/10 02:32:24;;;;;;;38.58;20.80;;;13.20;91.10;;;;;;4987535;28;20286;-48
2022/11/10 02:34:50;;;;;;;30.47;17.43;;;13.20;91.20;;;;;;4989312;28;20050;-47
2022/11/10 02:37:16;;;;;;;33.43;18.70;;;13.20;91.10;;;;;;4987887;28;20041;-46
2022/11/10 02:39:41;;;;;;;37.28;20.95;;;13.20;91.30;;;;;;4985525;28;20351;-49
2022/11/10 02:42:09;;;;;;;44.50;22.13;;;13.20;91.30;;;;;;4976969;28;20034;-52
2022/11/10 02:44:38;;;;;;;38.00;20.17;;;13.20;91.20;;;;;;4986885;28;20080;-57
2022/11/10 02:47:05;;;;;;;39.92;21.13;;;13.30;91.10;;;;;;4987555;28;20165;-53
2022/11/10 02:49:30;;;;;;;35.42;19.92;;;13.30;91.30;;;;;;4987047;28;20041;-52
2022/11/10 02:51:56;;;;;;;38.27;20.03;;;13.20;91.00;;;;;;4988411;28;20482;-54
2022/11/10 02:54:21;;;;;;;32.83;18.17;;;13.20;91.00;;;;;;4985194;28;20041;-58
2022/11/10 02:56:47;;;;;;;37.10;18.60;;;13.30;90.90;;;;;;4987971;28;20538;-57
2022/11/10 02:59:13;;;;;;;33.10;18.80;;;13.30;91.00;;;;;;4989260;28;20049;-57
2022/11/10 03:01:38;;;;;;;27.10;16.60;;;13.30;91.00;;;;;;4987092;28;20073;-54
2022/11/10 03:04:04;;;;;;;35.33;18.43;;;13.20;90.90;;;;;;4984264;28;20887;-56
2022/11/10 03:06:31;;;;;;;39.00;18.95;;;13.20;91.00;;;;;;4984987;28;20030;-53
2022/11/10 03:08:56;;;;;;;32.78;16.65;;;13.10;91.00;;;;;;4985194;28;20441;-51
2022/11/10 03:11:22;;;;;;;32.97;17.80;;;13.10;91.10;;;;;;4983205;28;20030;-49
2022/11/10 03:13:48;;;;;;;29.87;15.97;;;13.10;91.10;;;;;;4984585;28;20046;-46
2022/11/10 03:16:13;;;;;;;29.57;15.23;;;13.20;91.10;;;;;;4986616;28;20308;-48
2022/11/10 03:18:39;;;;;;;34.23;15.60;;;13.10;90.90;;;;;;4989112;28;20030;-46
2022/11/10 03:21:05;;;;;;;25.77;14.40;;;13.20;90.90;;;;;;4985747;28;20103;-47
2022/11/10 03:23:32;;;;;;;27.57;12.43;;;13.00;91.10;;;;;;4987654;28;20030;-54
2022/11/10 03:25:58;;;;;;;30.13;12.57;;;13.00;90.80;;;;;;4985175;28;20065;-50
2022/11/10 03:28:24;;;;;;;20.27;11.83;;;13.00;91.10;;;;;;4987432;28;20049;-50
2022/11/10 03:30:50;;;;;;;30.07;12.73;;;13.00;90.90;;;;;;4987183;28;20367;-47
2022/11/10 03:33:15;;;;;;;19.88;10.68;;;13.00;90.90;;;;;;4987857;28;20438;-49
2022/11/10 03:35:41;;;;;;;16.48;9.13;;;13.00;90.70;;;;;;4989192;28;20083;-46
2022/11/10 03:38:07;;;;;;;21.83;10.40;;;12.90;90.80;;;;;;4987234;28;20029;-48
2022/11/10 03:40:33;;;;;;;21.08;9.70;;;12.90;91.10;;;;;;4986125;28;20030;-50
2022/11/10 03:42:58;;;;;;;19.70;9.73;;;12.90;90.80;;;;;;4986767;28;20049;-55
2022/11/10 03:45:24;;;;;;;18.40;9.33;;;12.90;90.80;;;;;;4987233;28;20026;-53
2022/11/10 03:47:49;;;;;;;16.60;9.43;;;12.90;90.90;;;;;;4986143;28;20018;-51
2022/11/10 03:50:16;;;;;;;17.50;10.30;;;13.00;90.90;;;;;;4986913;28;20033;-48
2022/11/10 03:52:43;;;;;;;25.38;10.00;;;13.00;90.80;;;;;;4988640;28;20030;-46
2022/11/10 03:55:12;;;;;;;17.15;9.70;;;12.90;90.80;;;;;;4983628;28;20128;-50
2022/11/10 03:57:37;;;;;;;25.23;10.48;;;12.90;90.80;;;;;;4987463;28;20034;-57
2022/11/10 04:00:04;;;;;;;20.53;11.30;;;12.90;90.80;;;;;;4986768;28;20039;-47
2022/11/10 04:02:29;;;;;;;;;;;12.90;90.90;;;;;;4984955;28;20034;-51
2022/11/10 04:10:24;;;;;;;14.73;9.48;;;12.80;91.00;;;;;;4987924;28;20682;-58
2022/11/10 04:15:42;;;;;;;12.68;7.10;;;12.90;90.60;;;;;;4984337;28;20097;-46
2022/11/10 04:18:25;;;;;;;13.00;7.43;;;12.90;90.70;;;;;;4985438;28;20037;-46
2022/11/10 04:20:58;;;;;;;11.20;6.93;;;12.80;90.60;;;;;;4984777;28;20122;-47
2022/11/10 04:23:26;;;;;;;15.05;7.53;;;12.90;90.60;;;;;;4984601;28;20038;-51
2022/11/10 04:28:46;;;;;;;14.38;6.90;;;13.00;90.40;;;;;;4986962;28;20041;-47
2022/11/10 04:31:12;;;;;;;14.48;7.28;;;13.00;90.30;;;;;;4985208;28;20049;-46
2022/11/10 04:33:38;;;;;;;17.17;7.22;;;13.00;90.70;;;;;;4986259;28;20030;-49
2022/11/10 04:36:05;;;;;;;18.80;9.00;;;13.00;90.50;;;;;;4988186;28;20283;-52
2022/11/10 04:38:30;;;;;;;14.90;8.00;;;13.00;90.40;;;;;;4986048;28;20097;-49
2022/11/10 04:40:56;;;;;;;13.17;7.63;;;13.00;90.40;;;;;;4982260;28;20592;-54
2022/11/10 04:43:22;;;;;;;17.00;8.32;;;12.90;90.50;;;;;;4984748;28;20474;-51
2022/11/10 04:45:48;;;;;;;13.02;7.43;;;12.90;90.50;;;;;;4987301;28;20030;-48
2022/11/10 04:48:14;;;;;;;17.25;7.50;;;12.90;90.60;;;;;;4986125;28;20045;-50
2022/11/10 04:50:40;;;;;;;24.70;14.35;;;12.90;90.60;;;;;;4987452;28;20503;-50
2022/11/10 04:53:05;;;;;;;22.92;9.23;;;12.90;90.50;;;;;;4985550;28;20030;-47
2022/11/10 04:55:31;;;;;;;17.83;7.57;;;12.90;90.50;;;;;;4987119;28;20479;-48
2022/11/10 04:57:57;;;;;;;16.83;8.67;;;12.90;90.50;;;;;;4985702;28;20109;-50
2022/11/10 05:00:23;;;;;;;15.03;6.87;;;12.80;90.50;;;;;;4985997;28;20030;-48
2022/11/10 05:02:48;;;;;;;17.15;7.13;;;12.80;90.50;;;;;;4988075;28;20042;-51
2022/11/10 05:05:14;;;;;;;11.97;6.33;;;12.80;90.50;;;;;;4989115;28;20134;-51
2022/11/10 05:07:39;;;;;;;14.00;6.77;;;12.80;90.50;;;;;;4990409;28;20030;-47
2022/11/10 05:10:05;;;;;;;16.33;8.67;;;12.70;90.60;;;;;;4992064;28;20030;-49
2022/11/10 05:12:31;;;;;;;15.23;7.00;;;12.80;90.70;;;;;;4987426;28;20026;-45
2022/11/10 05:14:56;;;;;;;14.47;5.93;;;12.60;90.60;;;;;;4987419;28;20720;-46
2022/11/10 05:17:22;;;;;;;14.33;7.10;;;12.70;90.60;;;;;;4990094;28;20036;-55
2022/11/10 05:19:47;;;;;;;17.60;6.60;;;12.60;90.70;;;;;;4987840;28;20461;-46
2022/11/10 05:22:13;;;;;;;24.80;10.17;;;12.60;90.80;;;;;;4986100;28;20066;-48
2022/11/10 05:24:39;;;;;;;15.90;6.60;;;12.60;90.80;;;;;;4988295;28;20026;-46
2022/11/10 05:27:07;;;;;;;16.27;6.03;;;12.60;90.70;;;;;;4988960;28;20282;-48
2022/11/10 05:29:33;;;;;;;42.38;23.77;;;12.60;90.70;;;;;;4986644;28;20514;-52
2022/11/10 05:31:58;;;;;;;24.70;11.23;;;12.50;91.00;;;;;;4989364;28;20030;-51
2022/11/10 05:34:24;;;;;;;23.27;8.90;;;12.60;90.80;;;;;;4986713;28;20299;-50
2022/11/10 05:36:49;;;;;;;19.20;9.57;;;12.50;90.90;;;;;;4987633;28;20038;-53
2022/11/10 05:39:15;;;;;;;22.17;10.90;;;12.50;90.60;;;;;;4988202;28;20406;-50
2022/11/10 05:41:40;;;;;;;23.43;11.07;;;12.50;90.80;;;;;;4989418;28;20038;-53
2022/11/10 05:44:06;;;;;;;15.10;7.67;;;12.50;90.70;;;;;;4989274;28;20019;-55
2022/11/10 05:46:32;;;;;;;30.43;11.47;;;12.50;90.80;;;;;;4987870;28;20030;-51
2022/11/10 05:48:57;;;;;;;27.80;13.53;;;12.40;90.80;;;;;;4988848;28;20027;-52
2022/11/10 05:51:23;;;;;;;27.73;11.73;;;12.40;90.90;;;;;;4985494;28;20029;-50
2022/11/10 05:53:48;;;;;;;16.33;8.67;;;12.50;90.90;;;;;;4986601;28;20034;-53
2022/11/10 05:56:14;;;;;;;15.37;10.33;;;12.40;90.70;;;;;;4987701;28;20113;-51
2022/11/10 05:58:40;;;;;;;27.03;10.10;;;12.50;90.80;;;;;;4988929;28;20407;-50
2022/11/10 06:01:05;;;;;;;22.50;9.47;;;12.40;90.80;;;;;;4990377;28;20046;-49
2022/11/10 06:03:31;;;;;;;28.67;14.50;;;12.40;90.90;;;;;;4985296;28;20034;-50
2022/11/10 06:05:57;;;;;;;52.30;25.00;;;12.40;91.00;;;;;;4984517;28;20106;-49
2022/11/10 06:08:22;;;;;;;53.27;28.33;;;12.30;91.00;;;;;;4990770;28;20320;-46
2022/11/10 06:10:48;;;;;;;31.20;15.73;;;12.40;91.00;;;;;;4988540;28;20030;-46
2022/11/10 06:13:13;;;;;;;33.13;20.13;;;12.30;90.90;;;;;;4985054;28;20026;-49
2022/11/10 06:15:39;;;;;;;39.73;22.67;;;12.30;91.00;;;;;;4988737;28;20057;-46
2022/11/10 06:18:05;;;;;;;19.27;10.47;;;12.30;91.10;;;;;;4990391;28;20530;-49
2022/11/10 06:20:31;;;;;;;24.45;13.05;;;12.20;91.10;;;;;;4986941;28;20073;-47
2022/11/10 06:23:10;;;;;;;32.78;19.60;;;12.20;91.00;;;;;;4986844;28;20402;-58
2022/11/10 06:25:37;;;;;;;23.23;11.65;;;12.20;91.10;;;;;;4985296;28;20117;-48
2022/11/10 06:28:04;;;;;;;27.70;14.98;;;12.20;91.10;;;;;;4989994;28;20026;-51
2022/11/10 06:30:30;;;;;;;;;;;12.20;91.20;;;;;;4988784;28;20077;-46
2022/11/10 06:32:56;;;;;;;30.30;16.20;;;12.20;91.10;;;;;;4985831;28;19917;-54
2022/11/10 06:35:23;;;;;;;25.77;14.40;;;12.10;91.10;;;;;;4988547;28;20022;-50
2022/11/10 06:38:03;;;;;;;32.80;16.02;;;12.20;91.00;;;;;;4990198;28;20062;-47
2022/11/10 06:40:30;;;;;;;26.10;12.98;;;12.20;91.00;;;;;;4986362;28;20053;-50
2022/11/10 06:42:56;;;;;;;;;;;12.10;90.90;;;;;;4985833;28;20057;-53
2022/11/10 06:45:22;;;;;;;22.67;11.82;;;12.10;90.90;;;;;;4988865;28;19964;-51
2022/11/10 06:47:47;;;;;;;25.55;13.48;;;12.10;91.10;;;;;;4989674;28;20035;-50
2022/11/10 06:50:14;;;;;;;37.60;16.07;;;12.10;91.20;;;;;;4985290;28;20100;-49
2022/11/10 06:52:39;;;;;;;30.05;15.48;;;12.20;91.00;;;;;;4988202;28;20027;-50
2022/11/10 06:55:05;;;;;;;30.33;13.57;;;12.20;91.10;;;;;;4987101;28;20034;-50
2022/11/10 06:57:37;;;;;;;32.85;16.38;;;12.20;90.90;;;;;;4988975;28;20494;-50
2022/11/10 07:00:04;;;;;;;37.00;12.68;;;12.20;91.00;;;;;;4985296;28;20453;-50
2022/11/10 07:02:29;;;;;;;29.13;13.68;;;12.20;90.70;;;;;;4987030;28;20477;-52
2022/11/10 07:04:55;;;;;;;29.13;15.57;;;12.10;90.80;;;;;;4986969;28;20034;-52
2022/11/10 07:07:20;;;;;;;26.07;13.87;;;12.00;90.90;;;;;;4987513;28;20147;-54
2022/11/10 07:09:46;;;;;;;28.93;15.50;;;12.00;90.90;;;;;;4989476;28;20060;-48
2022/11/10 07:12:11;;;;;;;34.37;14.47;;;12.00;91.10;;;;;;4985409;28;20121;-46
2022/11/10 07:14:37;;;;;;;27.47;14.13;;;12.00;91.10;;;;;;4986607;28;20034;-45
2022/11/10 07:17:02;;;;;;;27.03;14.67;;;12.00;90.90;;;;;;4986981;28;20029;-51
2022/11/10 07:19:28;;;;;;;29.97;14.83;;;12.10;91.00;;;;;;4987671;28;20049;-48
2022/11/10 07:21:54;;;;;;;26.83;13.50;;;12.10;90.90;;;;;;4985974;28;20023;-46
2022/11/10 07:24:19;;;;;;;28.53;13.53;;;12.10;90.70;;;;;;4989414;28;20064;-49
2022/11/10 07:26:45;;;;;;;30.53;13.93;;;12.10;90.60;;;;;;4985078;28;20034;-46
2022/11/10 07:29:10;;;;;;;27.80;14.33;;;12.00;90.90;;;;;;4986617;28;20034;-59
2022/11/10 07:31:36;;;;;;;22.43;13.07;;;12.10;90.80;;;;;;4987165;28;20034;-60
2022/11/10 07:34:02;;;;;;;30.70;13.00;;;12.10;90.50;;;;;;4988174;28;20042;-57
2022/11/10 07:36:28;;;;;;;22.87;12.70;;;12.00;90.70;;;;;;4982323;28;20030;-57
2022/11/10 07:38:54;;;;;;;19.38;11.73;;;12.10;90.80;;;;;;4986655;28;20054;-56
2022/11/10 07:41:19;;;;;;;23.13;12.77;;;12.00;90.50;;;;;;4988705;28;20030;-48
2022/11/10 07:43:45;;;;;;;23.13;12.43;;;11.90;90.70;;;;;;4986402;28;20475;-50
2022/11/10 07:46:11;;;;;;;38.60;13.27;;;11.90;90.60;;;;;;4986861;28;20084;-50
2022/11/10 07:48:36;;;;;;;26.87;12.73;;;11.90;90.80;;;;;;4988398;28;20030;-54
2022/11/10 07:51:02;;;;;;;18.77;10.70;;;11.90;90.80;;;;;;4986371;28;20475;-54
2022/11/10 07:53:27;;;;;;;25.87;13.10;;;11.90;90.70;;;;;;4986510;28;20062;-57
2022/11/10 07:55:54;;;;;;;29.13;12.23;;;12.00;90.70;;;;;;4984045;28;20026;-58
2022/11/10 07:58:19;;;;;;;28.40;13.07;;;11.90;90.60;;;;;;4986839;28;20061;-55
2022/11/10 08:00:46;;;;;;;23.93;11.77;;;12.00;90.70;;;;;;4986326;28;20459;-54
2022/11/10 08:03:17;;;;;;;27.40;13.02;;;11.90;90.30;;;;;;4987235;28;20376;-54
2022/11/10 08:05:44;;;;;;;26.13;11.45;;;11.90;90.60;;;;;;4986696;28;20120;-49
2022/11/10 08:08:10;;;;;;;31.58;12.32;;;11.90;90.50;;;;;;4985575;28;20027;-50
2022/11/10 08:10:37;;;;;;;28.10;11.98;;;11.90;90.50;;;;;;4986408;28;20057;-47
2022/11/10 08:13:06;;;;;;;20.33;11.35;;;12.00;90.70;;;;;;4986998;28;20132;-47
2022/11/10 08:15:33;;;;;;;23.02;11.45;;;12.00;90.40;;;;;;4985774;28;20030;-52
2022/11/10 08:18:02;;;;;;;23.33;11.77;;;11.90;90.50;;;;;;4987532;28;20033;-49
2022/11/10 08:20:29;;;;;;;23.20;11.02;;;12.00;90.50;;;;;;4985865;28;20070;-56
2022/11/10 08:22:59;;;;;;;26.70;11.48;;;12.10;90.50;;;;;;4984727;28;20026;-45
2022/11/10 08:25:27;;;;;;;21.80;11.00;;;12.10;90.50;;;;;;4985948;28;20496;-48
2022/11/10 08:27:58;;;;;;;21.38;10.52;;;12.10;90.40;;;;;;4983852;28;20033;-49
2022/11/10 08:30:24;;;;;;;21.42;10.77;;;12.10;90.20;;;;;;4984001;28;20089;-57
2022/11/10 08:32:51;;;;;;;18.80;10.27;;;12.10;90.20;;;;;;4984617;28;20030;-58
2022/11/10 08:35:17;;;;;;;20.90;9.40;;;12.10;90.30;;;;;;4986262;28;20030;-54
2022/11/10 08:37:43;;;;;;;18.77;11.20;;;12.20;90.20;;;;;;4986428;28;20031;-55
2022/11/10 08:40:08;;;;;;;27.60;11.60;;;12.10;90.00;;;;;;4984438;28;20038;-58
2022/11/10 08:42:34;;;;;;;19.02;11.15;;;12.20;90.40;;;;;;4988269;28;20030;-58
2022/11/10 08:45:00;;;;;;;15.37;9.37;;;12.20;90.20;;;;;;4986642;28;20109;-50
2022/11/10 08:47:25;;;;;;;16.07;10.17;;;12.30;90.00;;;;;;4982764;28;20038;-48
2022/11/10 08:49:51;;;;;;;21.30;8.63;;;12.30;90.10;;;;;;4985687;28;20394;-50
2022/11/10 08:52:16;;;;;;;19.27;8.03;;;12.40;89.50;;;;;;4988039;28;20034;-52
2022/11/10 08:54:42;;;;;;;23.20;10.17;;;12.30;89.30;;;;;;4987754;28;20119;-51
2022/11/10 08:57:07;;;;;;;21.40;10.17;;;12.30;90.10;;;;;;4982879;28;20096;-51
2022/11/10 08:59:33;;;;;;;21.97;9.37;;;12.20;89.60;;;;;;4988175;28;20065;-55
2022/11/10 09:01:59;;;;;;;18.80;10.10;;;12.20;89.70;;;;;;4981048;28;20402;-52
2022/11/10 09:04:24;;;;;;;14.20;9.23;;;12.20;90.00;;;;;;4985712;28;20478;-56
2022/11/10 09:06:50;;;;;;;19.67;9.90;;;12.20;90.00;;;;;;4987269;28;20482;-55
2022/11/10 09:09:15;;;;;;;23.37;10.20;;;12.20;90.00;;;;;;4985656;28;20487;-59
2022/11/10 09:11:41;;;;;;;17.80;9.27;;;12.20;90.20;;;;;;4985751;28;20505;-50
2022/11/10 09:14:06;;;;;;;17.97;8.83;;;12.10;89.80;;;;;;4985971;28;20031;-45
2022/11/10 09:16:32;;;;;;;17.67;9.63;;;12.10;90.00;;;;;;4985663;28;20402;-45
2022/11/10 09:18:58;;;;;;;19.20;10.87;;;12.10;89.90;;;;;;4985087;28;20031;-50
2022/11/10 09:21:23;;;;;;;21.63;10.60;;;12.10;90.00;;;;;;4986455;28;20088;-46
2022/11/10 09:23:49;;;;;;;20.00;10.37;;;12.10;89.50;;;;;;4982225;28;20038;-47
2022/11/10 09:26:14;;;;;;;20.43;10.93;;;12.10;89.90;;;;;;4985278;28;20026;-49
2022/11/10 09:28:40;;;;;;;18.47;10.10;;;12.10;89.70;;;;;;4986663;28;20023;-46
2022/11/10 09:31:06;;;;;;;18.83;10.00;;;12.10;90.00;;;;;;4985415;28;20057;-49
2022/11/10 09:33:31;;;;;;;21.90;11.03;;;11.90;90.00;;;;;;4986819;28;20184;-48
2022/11/10 09:35:58;;;;;;;23.17;10.97;;;12.00;90.30;;;;;;4984749;28;20125;-47
2022/11/10 09:38:24;;;;;;;;;;;12.00;90.10;;;;;;4985763;28;20027;-52
2022/11/10 09:41:01;;;;;;;19.52;9.77;;;12.00;90.30;;;;;;4984909;28;19924;-45
2022/11/10 09:43:55;;;;;;;18.85;10.32;;;12.00;90.20;;;;;;4983671;28;20027;-58
2022/11/10 09:46:29;;;;;;;17.98;9.57;;;12.00;90.10;;;;;;4975515;28;20049;-48
2022/11/10 09:49:02;;;;;;;15.00;9.52;;;12.10;89.70;;;;;;4984296;28;20080;-55
2022/11/10 09:51:36;;;;;;;19.70;9.68;;;12.00;90.10;;;;;;4990616;28;20022;-48
2022/11/10 09:54:22;;;;;;;16.92;8.93;;;12.10;90.10;;;;;;4988393;28;20018;-57
2022/11/10 09:56:49;;;;;;;16.90;9.45;;;12.20;90.10;;;;;;4982642;28;20033;-45
2022/11/10 09:59:31;;;;;;;12.93;8.63;;;12.30;89.90;;;;;;4983253;28;20046;-48
2022/11/10 10:02:12;;;;;;;15.38;8.93;;;12.30;89.50;;;;;;4983514;28;20124;-56
2022/11/10 10:05:11;;;;;;;15.93;9.55;;;12.20;89.00;;;;;;4986034;28;20137;-56
2022/11/10 10:07:51;;;;;;;16.35;8.90;;;12.10;89.60;;;;;;4984812;28;20403;-53
2022/11/10 10:10:22;;;;;;;18.58;9.02;;;12.10;89.80;;;;;;4989104;28;20022;-56
2022/11/10 10:13:26;;;;;;;19.23;9.93;;;12.10;89.90;;;;;;4982709;28;20030;-56
2022/11/10 10:16:19;;;;;;;18.85;9.57;;;12.10;90.00;;;;;;4988701;28;20026;-61
2022/11/10 10:19:11;;;;;;;18.73;9.77;;;12.20;89.80;;;;;;4989387;28;20395;-59
2022/11/10 10:22:07;;;;;;;19.10;10.40;;;12.10;90.00;;;;;;4988252;28;20080;-57
2022/11/10 10:24:33;;;;;;;16.73;8.98;;;12.00;89.80;;;;;;4986026;28;20041;-56
2022/11/10 10:27:03;;;;;;;21.02;10.63;;;12.00;90.00;;;;;;4989319;28;20053;-51
2022/11/10 10:29:36;;;;;;;20.98;9.82;;;12.00;90.20;;;;;;4983166;28;20051;-52
2022/11/10 10:32:02;;;;;;;19.30;9.23;;;12.00;89.70;;;;;;4987251;28;20110;-52
2022/11/10 10:34:30;;;;;;;15.80;9.50;;;12.00;89.90;;;;;;4988825;28;20516;-56
2022/11/10 10:36:56;;;;;;;16.45;8.70;;;11.90;89.80;;;;;;4987419;28;20044;-58
2022/11/10 10:39:21;;;;;;;22.48;9.15;;;11.90;90.00;;;;;;4985563;28;20049;-51
2022/11/10 10:41:47;;;;;;;13.60;8.87;;;12.00;90.00;;;;;;4983500;28;20038;-53
2022/11/10 10:44:18;;;;;;;16.70;8.73;;;11.90;89.80;;;;;;4991257;28;20105;-57
2022/11/10 10:46:46;;;;;;;16.70;9.38;;;11.80;89.90;;;;;;4988810;28;20391;-58
2022/11/10 10:49:26;;;;;;;18.42;9.18;;;11.80;89.90;;;;;;4988170;28;20497;-56
2022/11/10 10:52:16;;;;;;;12.95;8.25;;;11.80;89.90;;;;;;4988005;28;20030;-52
2022/11/10 10:54:42;;;;;;;16.85;8.93;;;11.70;90.10;;;;;;4988126;28;20034;-59
2022/11/10 10:57:22;;;;;;;15.45;9.52;;;11.80;90.10;;;;;;4987692;28;20490;-59
2022/11/10 10:59:48;;;;;;;16.25;8.73;;;11.90;90.20;;;;;;4984043;28;20073;-52
2022/11/10 11:02:28;;;;;;;14.35;8.27;;;11.90;89.60;;;;;;4983099;28;20042;-53
2022/11/10 11:05:12;;;;;;;14.60;8.93;;;12.00;89.40;;;;;;4986679;28;20112;-55
2022/11/10 11:07:38;;;;;;;20.65;9.32;;;11.90;89.20;;;;;;4984234;28;20034;-55
2022/11/10 11:10:18;;;;;;;16.53;9.27;;;12.00;89.70;;;;;;4985458;28;20030;-51
2022/11/10 11:12:43;;;;;;;19.45;7.95;;;11.90;88.90;;;;;;4985841;28;20029;-53
2022/11/10 11:15:12;;;;;;;16.30;8.57;;;12.00;89.30;;;;;;4985665;28;20034;-52
2022/11/10 11:17:37;;;;;;;13.40;8.25;;;11.90;89.20;;;;;;4987117;28;20813;-52
2022/11/10 11:20:05;;;;;;;13.47;8.47;;;11.90;89.60;;;;;;4987062;28;20108;-52
2022/11/10 11:22:48;;;;;;;11.38;7.18;;;12.00;89.80;;;;;;4986849;28;20070;-56
2022/11/10 11:25:37;;;;;;;13.95;6.93;;;12.00;88.90;;;;;;4986535;28;20037;-55
2022/11/10 11:28:28;;;;;;;29.00;11.18;;;12.10;88.50;;;;;;4986112;28;20066;-53
2022/11/10 11:31:03;;;;;;;13.52;7.05;;;12.20;89.30;;;;;;4983069;28;20034;-59
2022/11/10 11:33:37;;;;;;;17.40;8.30;;;12.20;88.20;;;;;;4986057;28;20090;-56
2022/11/10 11:36:23;;;;;;;10.43;6.78;;;12.20;88.20;;;;;;4986371;28;20030;-55
2022/11/10 11:39:02;;;;;;;11.80;6.75;;;12.20;87.50;;;;;;4980040;28;20566;-56
2022/11/10 11:41:40;;;;;;;12.18;6.80;;;12.20;88.10;;;;;;4984682;28;20034;-59
2022/11/10 11:44:27;;;;;;;14.63;7.07;;;12.30;87.20;;;;;;4983248;28;20063;-61
2022/11/10 11:47:01;;;;;;;13.32;8.05;;;12.30;88.40;;;;;;4986780;28;20030;-58
2022/11/10 11:49:43;;;;;;;15.32;7.40;;;12.30;88.10;;;;;;4987257;28;20070;-61
2022/11/10 11:52:50;;;;;;;15.32;7.55;;;12.20;86.80;;;;;;4985746;28;20525;-68
2022/11/10 11:55:40;;;;;;;16.27;6.80;;;12.20;87.80;;;;;;4979177;28;20114;-57
2022/11/10 11:58:09;;;;;;;11.40;7.05;;;12.10;87.50;;;;;;4984150;28;20026;-63
2022/11/10 12:00:46;;;;;;;15.13;7.55;;;12.20;87.80;;;;;;4984838;28;20042;-48
2022/11/10 12:03:34;;;;;;;12.77;7.15;;;12.30;88.20;;;;;;4986909;28;20022;-50
2022/11/10 12:06:26;;;;;;;15.82;7.47;;;12.40;88.20;;;;;;4987280;28;20177;-53
2022/11/10 12:09:16;;;;;;;13.38;5.80;;;12.30;87.70;;;;;;4979228;28;20026;-47
2022/11/10 12:12:06;;;;;;;12.25;6.43;;;12.30;87.30;;;;;;4985012;28;20042;-52
2022/11/10 12:14:56;;;;;;;9.63;5.90;;;12.40;87.50;;;;;;4984473;28;20038;-49
2022/11/10 12:17:28;;;;;;;9.55;5.65;;;12.40;87.10;;;;;;4985633;28;20026;-49
2022/11/10 12:20:18;;;;;;;8.48;5.28;;;12.30;86.90;;;;;;4983759;28;20038;-52
2022/11/10 12:22:53;;;;;;;12.30;5.05;;;12.50;87.50;;;;;;4984668;28;20035;-51
2022/11/10 12:25:29;;;;;;;8.93;5.47;;;12.50;86.40;;;;;;4982114;28;20384;-54
2022/11/10 12:28:04;;;;;;;11.15;5.32;;;12.50;86.30;;;;;;4985891;28;20037;-55
2022/11/10 12:30:31;;;;;;;8.80;4.93;;;12.50;86.30;;;;;;4982086;28;20110;-61
2022/11/10 12:33:11;;;;;;;9.32;5.13;;;12.50;85.60;;;;;;4984562;28;20065;-54
2022/11/10 12:35:41;;;;;;;11.85;5.43;;;12.50;87.10;;;;;;4985999;28;20022;-51
2022/11/10 12:38:18;;;;;;;9.13;5.10;;;12.50;86.60;;;;;;4982936;28;20032;-50
2022/11/10 12:41:00;;;;;;;12.13;5.30;;;12.50;85.80;;;;;;4985300;28;20383;-54
2022/11/10 12:43:35;;;;;;;9.00;5.13;;;12.40;85.60;;;;;;4984411;28;20022;-50
2022/11/10 12:46:11;;;;;;;10.93;5.47;;;12.50;87.10;;;;;;4986127;28;20038;-52
2022/11/10 12:49:00;;;;;;;8.20;4.40;;;12.50;85.40;;;;;;4985646;28;20030;-61
2022/11/10 12:51:50;;;;;;;14.30;4.93;;;12.50;86.10;;;;;;4983692;28;20058;-51
2022/11/10 12:54:18;;;;;;;13.82;6.57;;;12.50;86.10;;;;;;4981075;28;20113;-56
2022/11/10 12:56:52;;;;;;;11.20;5.22;;;12.60;86.90;;;;;;4982858;28;20030;-55
2022/11/10 12:59:20;;;;;;;8.88;4.43;;;12.60;86.10;;;;;;4981086;28;20069;-59